createdAt,value
2023-01-04T00:01:07.338Z,9.55
2023-01-04T00:03:35.874Z,11.25
2023-01-04T00:06:07.246Z,7.55
2023-01-04T00:08:35.186Z,9.70
2023-01-04T00:11:03.977Z,5.73
2023-01-04T00:13:32.184Z,10.18
2023-01-04T00:16:07.242Z,6.32
2023-01-04T00:18:36.106Z,9.07
2023-01-04T00:21:13.332Z,6.63
2023-01-04T00:23:42.414Z,11.10
2023-01-04T00:26:10.387Z,9.38
2023-01-04T00:28:38.737Z,7.38
2023-01-04T00:31:07.527Z,7.00
2023-01-04T00:33:35.309Z,6.75
2023-01-04T00:36:05.036Z,8.47
2023-01-04T00:38:35.643Z,6.40
2023-01-04T00:41:03.879Z,10.07
2023-01-04T00:43:31.875Z,8.70
2023-01-04T00:46:01.161Z,7.57
2023-01-04T00:48:29.355Z,6.97
2023-01-04T00:50:57.662Z,7.18
2023-01-04T00:53:25.152Z,6.63
2023-01-04T00:55:59.643Z,6.13
2023-01-04T00:58:27.162Z,7.47
2023-01-04T01:00:54.709Z,5.73
2023-01-04T01:03:22.371Z,8.48
2023-01-04T01:05:50.061Z,7.05
2023-01-04T01:08:26.414Z,5.72
2023-01-04T01:10:55.913Z,5.68
2023-01-04T01:13:24.065Z,6.13
2023-01-04T01:15:51.668Z,9.82
2023-01-04T01:18:19.228Z,7.13
2023-01-04T01:20:47.108Z,6.90
2023-01-04T01:23:15.910Z,9.65
2023-01-04T01:25:43.662Z,5.63
2023-01-04T01:28:12.523Z,6.53
2023-01-04T01:30:41.833Z,7.13
2023-01-04T01:33:09.811Z,5.88
2023-01-04T01:35:37.999Z,8.32
2023-01-04T01:38:05.826Z,5.93
2023-01-04T01:40:33.430Z,7.35
2023-01-04T01:43:00.971Z,5.80
2023-01-04T01:45:32.512Z,7.40
2023-01-04T01:48:06.139Z,6.40
2023-01-04T01:50:40.613Z,5.80
2023-01-04T01:53:10.586Z,7.80
2023-01-04T01:55:41.366Z,6.60
2023-01-04T01:58:13.289Z,9.77
2023-01-04T02:00:42.159Z,8.25
2023-01-04T02:03:17.031Z,5.67
2023-01-04T02:05:46.119Z,6.20
2023-01-04T02:08:15.655Z,7.20
2023-01-04T02:10:43.197Z,5.40
2023-01-04T02:13:13.125Z,5.70
2023-01-04T02:15:56.132Z,7.83
2023-01-04T02:18:28.678Z,5.68
2023-01-04T02:21:02.650Z,5.38
2023-01-04T02:24:16.589Z,6.78
2023-01-04T02:27:13.146Z,7.50
2023-01-04T02:30:11.210Z,4.00
2023-01-04T02:32:55.584Z,5.65
2023-01-04T02:35:30.484Z,8.13
2023-01-04T02:38:07.111Z,7.03
2023-01-04T02:40:45.808Z,6.93
2023-01-04T02:43:38.994Z,5.23
2023-01-04T02:46:10.895Z,5.93
2023-01-04T02:48:59.154Z,7.30
2023-01-04T02:51:30.260Z,8.98
2023-01-04T02:54:00.823Z,8.52
2023-01-04T02:56:40.225Z,6.07
2023-01-04T02:59:28.936Z,6.22
2023-01-04T03:02:27.234Z,7.43
2023-01-04T03:05:29.057Z,5.63
2023-01-04T03:08:06.713Z,9.10
2023-01-04T03:10:39.868Z,6.97
2023-01-04T03:13:13.576Z,5.72
2023-01-04T03:15:43.699Z,5.97
2023-01-04T03:18:17.053Z,7.18
2023-01-04T03:20:48.019Z,6.47
2023-01-04T03:23:38.337Z,6.63
2023-01-04T03:26:28.711Z,5.78
2023-01-04T03:29:15.953Z,5.18
2023-01-04T03:32:05.692Z,8.23
2023-01-04T03:34:51.083Z,8.60
2023-01-04T03:37:24.201Z,5.83
2023-01-04T03:40:28.075Z,7.78
2023-01-04T03:43:21.930Z,5.88
2023-01-04T03:46:10.292Z,8.18
2023-01-04T03:48:44.880Z,5.38
2023-01-04T03:51:16.521Z,6.27
2023-01-04T03:53:53.829Z,7.32
2023-01-04T03:56:23.954Z,10.40
2023-01-04T03:58:52.418Z,7.47
2023-01-04T04:01:21.734Z,4.93
2023-01-04T04:04:07.109Z,8.63
2023-01-04T04:06:52.309Z,5.05
2023-01-04T04:09:21.223Z,7.55
2023-01-04T04:11:48.871Z,8.50
2023-01-04T04:14:16.593Z,6.75
2023-01-04T04:16:44.181Z,6.53
2023-01-04T04:19:11.930Z,8.82
2023-01-04T04:21:39.601Z,6.82
2023-01-04T04:24:07.958Z,7.15
2023-01-04T04:26:36.806Z,8.52
2023-01-04T04:29:04.408Z,6.27
2023-01-04T04:31:31.977Z,6.63
2023-01-04T04:33:59.593Z,4.60
2023-01-04T04:36:27.100Z,6.93
2023-01-04T04:38:54.661Z,7.65
2023-01-04T04:41:39.674Z,6.50
2023-01-04T04:44:09.900Z,8.27
2023-01-04T04:46:37.450Z,7.93
2023-01-04T04:49:05.777Z,8.93
2023-01-04T04:51:33.834Z,8.77
2023-01-04T04:54:01.675Z,7.80
2023-01-04T04:56:29.501Z,5.82
2023-01-04T04:58:57.011Z,8.05
2023-01-04T05:01:26.152Z,8.07
2023-01-04T05:03:53.810Z,8.10
2023-01-04T05:06:21.543Z,10.87
2023-01-04T05:08:49.130Z,9.05
2023-01-04T05:11:16.731Z,5.97
2023-01-04T05:13:43.341Z,6.70
2023-01-04T05:16:11.421Z,6.72
2023-01-04T05:18:40.377Z,7.30
2023-01-04T05:21:07.967Z,7.80
2023-01-04T05:23:35.557Z,7.38
2023-01-04T05:26:03.632Z,7.43
2023-01-04T05:28:31.167Z,9.10
2023-01-04T05:30:57.803Z,8.50
2023-01-04T05:33:27.379Z,7.90
2023-01-04T05:35:57.728Z,7.30
2023-01-04T05:38:25.850Z,8.18
2023-01-04T05:40:53.895Z,9.50
2023-01-04T05:43:22.860Z,6.57
2023-01-04T05:45:51.889Z,5.72
2023-01-04T05:48:19.985Z,7.22
2023-01-04T05:50:48.206Z,6.57
2023-01-04T05:53:18.822Z,5.35
2023-01-04T05:55:48.538Z,5.77
2023-01-04T05:58:16.160Z,4.65
2023-01-04T06:00:43.687Z,5.97
2023-01-04T06:03:11.378Z,8.85
2023-01-04T06:05:39.036Z,4.97
2023-01-04T06:08:07.503Z,6.47
2023-01-04T06:10:36.399Z,5.60
2023-01-04T06:13:03.996Z,5.97
2023-01-04T06:15:31.547Z,5.25
2023-01-04T06:17:59.143Z,5.15
2023-01-04T06:20:26.740Z,5.50
2023-01-04T06:22:54.296Z,6.07
2023-01-04T06:25:21.847Z,12.52
2023-01-04T06:27:50.743Z,5.65
2023-01-04T06:30:18.530Z,5.50
2023-01-04T06:32:46.058Z,5.63
2023-01-04T06:35:13.559Z,5.93
2023-01-04T06:37:41.127Z,5.15
2023-01-04T06:40:10.352Z,5.47
2023-01-04T06:42:47.035Z,5.65
2023-01-04T06:45:17.256Z,5.83
2023-01-04T06:47:47.764Z,4.82
2023-01-04T06:50:15.383Z,5.65
2023-01-04T06:52:43.000Z,5.10
2023-01-04T06:55:11.078Z,5.53
2023-01-04T06:57:38.687Z,5.90
2023-01-04T07:00:07.452Z,4.85
2023-01-04T07:02:36.425Z,6.50
2023-01-04T07:05:04.855Z,6.78
2023-01-04T07:07:33.642Z,5.63
2023-01-04T07:10:07.077Z,5.93
2023-01-04T07:12:37.684Z,5.13
2023-01-04T07:15:39.168Z,5.88
2023-01-04T07:17:54.919Z,5.88
2023-01-04T07:20:22.512Z,8.50
2023-01-04T07:22:50.096Z,5.83
2023-01-04T07:25:17.716Z,5.63
2023-01-04T07:27:45.478Z,6.90
2023-01-04T07:30:14.185Z,7.72
2023-01-04T07:32:41.726Z,5.90
2023-01-04T07:35:10.902Z,9.30
2023-01-04T07:37:38.514Z,6.20
2023-01-04T07:40:07.329Z,6.40
2023-01-04T07:42:34.849Z,8.35
2023-01-04T07:45:02.430Z,6.50
2023-01-04T07:47:30.009Z,6.57
2023-01-04T07:49:57.631Z,7.00
2023-01-04T07:52:26.767Z,6.43
2023-01-04T07:54:55.075Z,6.28
2023-01-04T07:57:22.598Z,7.55
2023-01-04T07:59:50.159Z,7.87
2023-01-04T08:02:18.077Z,8.18
2023-01-04T08:04:45.851Z,8.23
2023-01-04T08:07:13.510Z,9.13
2023-01-04T08:09:42.337Z,8.00
2023-01-04T08:12:09.879Z,9.73
2023-01-04T08:14:37.382Z,11.25
2023-01-04T08:17:04.924Z,9.45
2023-01-04T08:19:32.512Z,9.45
2023-01-04T08:22:00.011Z,11.75
2023-01-04T08:24:27.856Z,10.73
2023-01-04T08:26:56.745Z,7.60
2023-01-04T08:29:26.926Z,8.23
2023-01-04T08:31:57.002Z,8.65
2023-01-04T08:34:24.511Z,8.02
2023-01-04T08:36:53.228Z,10.03
2023-01-04T08:39:21.635Z,8.45
2023-01-04T08:41:59.471Z,9.02
2023-01-04T08:44:29.964Z,11.48
2023-01-04T08:46:58.770Z,9.70
2023-01-04T08:49:27.500Z,10.07
2023-01-04T08:51:55.043Z,10.15
2023-01-04T08:54:23.619Z,9.43
2023-01-04T08:56:51.226Z,9.32
2023-01-04T08:59:18.802Z,8.35
2023-01-04T09:01:47.879Z,8.43
2023-01-04T09:04:15.618Z,8.32
2023-01-04T09:06:43.206Z,7.43
2023-01-04T09:09:10.856Z,7.30
2023-01-04T09:11:39.610Z,6.90
2023-01-04T09:14:09.329Z,6.83
2023-01-04T09:16:37.872Z,7.72
2023-01-04T09:19:07.782Z,7.47
2023-01-04T09:21:35.656Z,7.03
2023-01-04T09:24:03.524Z,6.85
2023-01-04T09:26:31.392Z,6.87
2023-01-04T09:28:59.116Z,10.70
2023-01-04T09:31:28.594Z,7.75
2023-01-04T09:34:15.316Z,6.18
2023-01-04T09:36:46.280Z,5.90
2023-01-04T09:39:21.630Z,7.97
2023-01-04T09:41:56.821Z,5.97
2023-01-04T09:45:03.207Z,6.40
2023-01-04T09:47:29.538Z,6.05
2023-01-04T09:50:03.598Z,6.90
2023-01-04T09:52:56.239Z,6.67
2023-01-04T09:55:37.742Z,6.60
2023-01-04T09:58:18.669Z,6.55
2023-01-04T10:00:48.777Z,6.15
2023-01-04T10:03:20.098Z,7.00
2023-01-04T10:05:48.043Z,8.93
2023-01-04T10:08:19.966Z,6.43
2023-01-04T10:10:51.711Z,8.90
2023-01-04T10:13:48.081Z,6.95
2023-01-04T10:16:44.157Z,5.40
2023-01-04T10:21:10.243Z,13.80
2023-01-04T10:22:17.157Z,5.50
2023-01-04T10:24:53.467Z,6.38
2023-01-04T10:27:34.343Z,5.32
2023-01-04T10:30:17.372Z,4.00
2023-01-04T10:32:46.815Z,4.93
2023-01-04T10:35:20.616Z,4.38
2023-01-04T10:37:51.317Z,4.15
2023-01-04T10:40:20.517Z,3.90
2023-01-04T10:42:57.606Z,4.30
2023-01-04T10:45:33.770Z,4.03
2023-01-04T10:48:11.340Z,4.20
2023-01-04T10:50:45.756Z,4.97
2023-01-04T10:53:19.606Z,4.25
2023-01-04T10:56:25.461Z,4.22
2023-01-04T10:58:48.154Z,5.90
2023-01-04T11:01:23.554Z,4.70
2023-01-04T11:03:56.026Z,4.30
2023-01-04T11:06:26.200Z,4.85
2023-01-04T11:08:59.130Z,4.43
2023-01-04T11:11:33.423Z,4.80
2023-01-04T11:14:01.394Z,4.32
2023-01-04T11:16:30.579Z,6.28
2023-01-04T11:18:59.188Z,6.60
2023-01-04T11:21:32.462Z,4.70
2023-01-04T11:24:30.333Z,4.40
2023-01-04T11:26:54.277Z,5.30
2023-01-04T11:29:30.818Z,5.40
2023-01-04T11:32:03.770Z,5.95
2023-01-04T11:34:50.740Z,4.97
2023-01-04T11:37:30.320Z,4.77
2023-01-04T11:40:24.572Z,5.70
2023-01-04T11:43:11.215Z,5.18
2023-01-04T11:45:39.272Z,5.53
2023-01-04T11:48:12.579Z,5.07
2023-01-04T11:50:44.099Z,4.70
2023-01-04T11:53:27.291Z,5.20
2023-01-04T11:56:20.016Z,4.82
2023-01-04T11:59:05.314Z,4.63
2023-01-04T12:01:35.153Z,5.53
2023-01-04T12:04:03.575Z,6.03
2023-01-04T12:06:37.433Z,4.65
2023-01-04T12:09:05.270Z,4.72
2023-01-04T12:11:35.842Z,4.95
2023-01-04T12:14:05.398Z,5.10
2023-01-04T12:16:46.101Z,5.37
2023-01-04T12:19:17.117Z,5.20
2023-01-04T12:21:48.291Z,5.25
2023-01-04T12:24:19.726Z,4.72
2023-01-04T12:26:48.526Z,4.90
2023-01-04T12:29:57.371Z,5.33
2023-01-04T12:32:42.968Z,5.35
2023-01-04T12:36:03.028Z,4.82
2023-01-04T12:39:00.385Z,4.47
2023-01-04T12:42:17.668Z,4.40
2023-01-04T12:45:22.140Z,4.63
2023-01-04T12:48:10.395Z,4.88
2023-01-04T12:51:31.095Z,4.43
2023-01-04T12:54:02.176Z,4.65
2023-01-04T12:57:22.890Z,5.40
2023-01-04T12:59:56.279Z,4.30
2023-01-04T13:02:25.344Z,4.82
2023-01-04T13:05:25.689Z,4.88
2023-01-04T13:07:46.392Z,4.55
2023-01-04T13:10:22.734Z,4.20
2023-01-04T13:13:11.053Z,4.30
2023-01-04T13:15:52.662Z,3.92
2023-01-04T13:18:35.286Z,4.40
2023-01-04T13:21:11.107Z,5.20
2023-01-04T13:23:40.109Z,3.78
2023-01-04T13:26:36.877Z,4.27
2023-01-04T13:29:09.875Z,5.50
2023-01-04T13:31:46.130Z,5.22
2023-01-04T13:34:20.139Z,4.25
2023-01-04T13:36:57.457Z,5.88
2023-01-04T13:39:25.411Z,6.23
2023-01-04T13:41:54.732Z,4.57
2023-01-04T13:45:00.278Z,4.53
2023-01-04T13:47:21.470Z,6.93
2023-01-04T13:49:49.308Z,4.72
2023-01-04T13:55:11.487Z,5.57
2023-01-04T13:57:39.082Z,8.13
2023-01-04T14:00:08.247Z,6.93
2023-01-04T14:02:38.988Z,6.47
2023-01-04T14:05:07.932Z,7.47
2023-01-04T14:07:36.941Z,5.35
2023-01-04T14:10:04.912Z,6.07
2023-01-04T14:12:32.531Z,7.38
2023-01-04T14:15:15.233Z,5.95
2023-01-04T14:17:50.761Z,8.10
2023-01-04T14:20:35.281Z,7.00
2023-01-04T14:23:05.021Z,7.85
2023-01-04T14:25:44.707Z,7.63
2023-01-04T14:28:48.657Z,8.57
2023-01-04T14:31:29.305Z,6.07
2023-01-04T14:33:57.308Z,6.38
2023-01-04T14:36:28.126Z,8.45
2023-01-04T14:39:10.880Z,6.78
2023-01-04T14:41:40.275Z,8.90
2023-01-04T14:44:13.967Z,3.90
2023-01-04T14:46:43.491Z,8.18
2023-01-04T14:49:11.334Z,7.63
2023-01-04T14:51:42.202Z,6.63
2023-01-04T14:54:17.467Z,7.32
2023-01-04T14:56:48.305Z,8.03
2023-01-04T14:59:15.797Z,10.02
2023-01-04T15:01:43.492Z,7.25
2023-01-04T15:04:11.214Z,7.30
2023-01-04T15:06:48.024Z,8.05
2023-01-04T15:09:16.973Z,10.90
2023-01-04T15:11:44.513Z,9.15
2023-01-04T15:14:12.081Z,12.60
2023-01-04T15:16:40.077Z,10.77
2023-01-04T15:19:07.708Z,8.73
2023-01-04T15:21:40.964Z,10.53
2023-01-04T15:24:09.630Z,12.80
2023-01-04T15:26:38.891Z,11.95
2023-01-04T15:29:07.142Z,12.95
2023-01-04T15:31:39.560Z,9.88
2023-01-04T15:34:08.044Z,6.90
2023-01-04T15:36:38.474Z,10.25
2023-01-04T15:39:06.690Z,12.40
2023-01-04T15:41:52.156Z,11.13
2023-01-04T15:44:21.022Z,12.05
2023-01-04T15:46:50.520Z,12.40
2023-01-04T15:49:18.304Z,12.60
2023-01-04T15:51:46.140Z,10.18
2023-01-04T15:54:13.782Z,15.57
2023-01-04T15:56:41.362Z,9.65
2023-01-04T15:59:09.068Z,11.30
2023-01-04T16:01:37.976Z,10.88
2023-01-04T16:04:06.817Z,10.60
2023-01-04T16:06:35.061Z,12.75
2023-01-04T16:09:02.619Z,10.40
2023-01-04T16:11:30.577Z,12.47
2023-01-04T16:13:58.632Z,13.50
2023-01-04T16:16:28.348Z,12.02
2023-01-04T16:18:58.073Z,10.80
2023-01-04T16:21:28.220Z,13.13
2023-01-04T16:24:03.856Z,12.40
2023-01-04T16:26:32.980Z,12.75
2023-01-04T16:29:00.702Z,11.25
2023-01-04T16:31:34.056Z,9.35
2023-01-04T16:34:03.767Z,8.00
2023-01-04T16:36:31.459Z,10.70
2023-01-04T16:38:59.001Z,15.00
2023-01-04T16:41:26.536Z,15.60
2023-01-04T16:43:58.724Z,11.40
2023-01-04T16:46:28.389Z,14.00
2023-01-04T16:48:57.772Z,11.57
2023-01-04T16:51:28.291Z,11.27
2023-01-04T16:53:56.747Z,11.43
2023-01-04T16:56:25.571Z,9.25
2023-01-04T16:58:53.355Z,10.55
2023-01-04T17:01:23.489Z,9.13
2023-01-04T17:03:54.967Z,10.63
2023-01-04T17:06:24.635Z,14.40
2023-01-04T17:08:55.267Z,12.85
2023-01-04T17:12:11.459Z,14.50
2023-01-04T17:14:14.107Z,10.10
2023-01-04T17:16:42.243Z,9.50
2023-01-04T17:19:10.643Z,17.08
2023-01-04T17:21:38.155Z,12.48
2023-01-04T17:24:07.872Z,10.68
2023-01-04T17:26:35.447Z,10.63
2023-01-04T17:29:03.585Z,10.68
2023-01-04T17:31:33.323Z,14.65
2023-01-04T17:34:01.247Z,12.77
2023-01-04T17:36:28.857Z,9.32
2023-01-04T17:38:56.433Z,13.43
2023-01-04T17:41:26.920Z,14.48
2023-01-04T17:44:00.021Z,11.40
2023-01-04T17:46:31.680Z,13.70
2023-01-04T17:49:21.608Z,18.38
2023-01-04T17:51:47.555Z,12.00
2023-01-04T17:54:15.280Z,13.77
2023-01-04T17:56:44.141Z,12.70
2023-01-04T17:59:12.366Z,13.35
2023-01-04T18:01:40.069Z,15.63
2023-01-04T18:04:08.911Z,12.53
2023-01-04T18:06:37.622Z,15.52
2023-01-04T18:09:07.025Z,14.30
2023-01-04T18:11:35.453Z,14.10
2023-01-04T18:14:08.069Z,11.18
2023-01-04T18:16:56.423Z,17.37
2023-01-04T18:19:26.089Z,15.27
2023-01-04T18:21:53.844Z,17.63
2023-01-04T18:24:38.374Z,11.88
2023-01-04T18:27:24.334Z,18.95
2023-01-04T18:29:56.476Z,20.57
2023-01-04T18:32:26.001Z,24.50
2023-01-04T18:34:53.707Z,22.60
2023-01-04T18:37:21.749Z,21.05
2023-01-04T18:39:49.791Z,15.45
2023-01-04T18:42:17.476Z,15.67
2023-01-04T18:44:48.901Z,18.33
2023-01-04T18:47:19.629Z,20.35
2023-01-04T18:49:47.286Z,19.17
2023-01-04T18:52:14.968Z,13.20
2023-01-04T18:54:42.926Z,17.57
2023-01-04T18:57:10.453Z,16.48
2023-01-04T18:59:37.976Z,18.95
2023-01-04T19:02:05.778Z,17.65
2023-01-04T19:04:36.043Z,17.08
2023-01-04T19:07:03.701Z,13.73
2023-01-04T19:09:31.456Z,15.52
2023-01-04T19:11:59.025Z,13.43
2023-01-04T19:14:26.584Z,15.88
2023-01-04T19:16:54.190Z,16.70
2023-01-04T19:19:21.836Z,9.20
2023-01-04T19:21:50.677Z,15.50
2023-01-04T19:24:18.351Z,15.07
2023-01-04T19:26:45.932Z,13.45
2023-01-04T19:29:13.451Z,12.70
2023-01-04T19:31:41.001Z,18.23
2023-01-04T19:34:09.715Z,16.30
2023-01-04T19:36:37.615Z,19.08
2023-01-04T19:39:09.039Z,18.45
2023-01-04T19:41:38.013Z,12.32
2023-01-04T19:44:08.177Z,23.53
2023-01-04T19:46:37.917Z,20.17
2023-01-04T19:49:09.444Z,16.48
2023-01-04T19:51:43.672Z,18.67
2023-01-04T19:54:12.884Z,15.45
2023-01-04T19:56:40.905Z,18.00
2023-01-04T19:59:08.503Z,20.13
2023-01-04T20:01:36.362Z,16.10
2023-01-04T20:04:04.699Z,15.25
2023-01-04T20:06:33.025Z,14.98
2023-01-04T20:09:00.542Z,14.40
2023-01-04T20:11:29.481Z,16.45
2023-01-04T20:13:57.051Z,14.98
2023-01-04T20:16:24.643Z,19.60
2023-01-04T20:18:55.357Z,17.52
2023-01-04T20:21:23.073Z,12.70
2023-01-04T20:23:50.714Z,17.42
2023-01-04T20:26:19.439Z,15.82
2023-01-04T20:28:48.591Z,21.60
2023-01-04T20:31:18.304Z,13.45
2023-01-04T20:33:47.427Z,7.90
2023-01-04T20:36:17.391Z,10.30
2023-01-04T20:38:46.886Z,13.93
2023-01-04T20:41:17.241Z,11.05
2023-01-04T20:43:44.918Z,10.52
2023-01-04T20:46:16.134Z,9.07
2023-01-04T20:48:44.408Z,9.75
2023-01-04T20:51:15.081Z,7.47
2023-01-04T20:53:42.671Z,11.55
2023-01-04T20:56:14.134Z,8.75
2023-01-04T20:58:41.757Z,10.33
2023-01-04T21:01:09.985Z,9.60
2023-01-04T21:03:39.192Z,10.40
2023-01-04T21:06:08.971Z,10.20
2023-01-04T21:08:37.500Z,12.93
2023-01-04T21:11:05.358Z,11.83
2023-01-04T21:13:33.336Z,21.17
2023-01-04T21:16:01.374Z,13.52
2023-01-04T21:18:28.955Z,13.55
2023-01-04T21:20:57.886Z,11.70
2023-01-04T21:23:27.511Z,10.97
2023-01-04T21:25:56.917Z,15.43
2023-01-04T21:28:24.487Z,19.52
2023-01-04T21:30:52.117Z,17.35
2023-01-04T21:33:19.668Z,17.60
2023-01-04T21:35:47.193Z,18.50
2023-01-04T21:38:16.005Z,20.98
2023-01-04T21:40:43.578Z,16.08
2023-01-04T21:43:17.488Z,16.98
2023-01-04T21:45:45.291Z,18.60
2023-01-04T21:48:12.799Z,15.03
2023-01-04T21:50:40.300Z,16.38
2023-01-04T21:53:07.835Z,17.38
2023-01-04T21:55:36.715Z,18.40
2023-01-04T21:58:04.338Z,16.42
2023-01-04T22:00:31.853Z,13.57
2023-01-04T22:02:59.395Z,27.70
2023-01-04T22:05:27.009Z,16.15
2023-01-04T22:07:54.564Z,20.50
2023-01-04T22:10:22.147Z,11.38
2023-01-04T22:12:51.343Z,13.47
2023-01-04T22:15:18.872Z,17.83
2023-01-04T22:17:46.429Z,18.00
2023-01-04T22:20:13.959Z,19.50
2023-01-04T22:22:41.775Z,13.07
2023-01-04T22:25:09.964Z,15.27
2023-01-04T22:27:37.584Z,18.25
2023-01-04T22:30:07.894Z,15.55
2023-01-04T22:32:35.439Z,19.23
2023-01-04T22:35:03.009Z,18.08
2023-01-04T22:37:30.496Z,13.13
2023-01-04T22:39:58.022Z,17.77
2023-01-04T22:42:25.589Z,14.55
2023-01-04T22:44:53.532Z,16.85
2023-01-04T22:47:22.425Z,15.32
2023-01-04T22:49:50.005Z,18.07
2023-01-04T22:52:17.537Z,16.10
2023-01-04T22:54:45.064Z,13.23
2023-01-04T22:57:12.619Z,14.13
2023-01-04T22:59:40.171Z,12.95
2023-01-04T23:02:07.882Z,16.67
2023-01-04T23:04:36.751Z,9.13
2023-01-04T23:07:04.483Z,13.88
2023-01-04T23:09:31.991Z,10.98
2023-01-04T23:11:59.490Z,14.80
2023-01-04T23:14:27.037Z,20.47
2023-01-04T23:16:54.679Z,16.15
2023-01-04T23:19:22.263Z,14.05
2023-01-04T23:21:51.094Z,13.88
2023-01-04T23:24:18.588Z,14.77
2023-01-04T23:26:47.066Z,16.03
2023-01-04T23:29:14.624Z,14.90
2023-01-04T23:31:42.336Z,18.05
2023-01-04T23:34:13.323Z,13.32
2023-01-04T23:36:42.851Z,14.10
2023-01-04T23:39:14.637Z,14.30
2023-01-04T23:41:45.632Z,17.60
2023-01-04T23:44:15.849Z,13.52
2023-01-04T23:46:43.858Z,15.50
2023-01-04T23:49:11.925Z,13.05
2023-01-04T23:51:40.066Z,12.73
2023-01-04T23:54:08.815Z,15.13
2023-01-04T23:56:39.044Z,20.83
2023-01-04T23:59:07.347Z,16.85
